Time;durP1;ratioP1;P1;durP2;ratioP2;P2;SDS_P1;SDS_P2;PMS_P1;PMS_P2;Temp;Humidity;BMP_temperature;BMP_pressure;BME280_temperature;BME280_humidity;BME280_pressure;Samples;Min_cycle;Max_cycle;Signal;HPM_P1;HPM_P2
2022/05/08 00:00:05;;;;;;;13.10;8.63;;;;;;;;;;5093803;28;20018;-39
2022/05/08 00:02:30;;;;;;;13.15;8.88;;;;;;;;;;5094144;28;20474;-39
2022/05/08 00:04:55;;;;;;;13.20;8.45;;;;;;;;;;5094430;28;20024;-38
2022/05/08 00:07:21;;;;;;;11.88;8.52;;;;;;;;;;5093956;28;20019;-38
2022/05/08 00:09:47;;;;;;;14.25;9.35;;;;;;;;;;5093943;28;20016;-38
2022/05/08 00:12:13;;;;;;;12.82;8.88;;;;;;;;;;5094003;28;20016;-39
2022/05/08 00:14:39;;;;;;;13.80;9.20;;;;;;;;;;5093563;28;20103;-39
2022/05/08 00:17:05;;;;;;;15.00;9.45;;;;;;;;;;5093615;28;20502;-39
2022/05/08 00:19:30;;;;;;;12.07;8.57;;;;;;;;;;5093841;28;20015;-39
2022/05/08 00:21:55;;;;;;;13.20;7.82;;;;;;;;;;5093706;28;20093;-39
2022/05/08 00:24:21;;;;;;;10.32;8.07;;;;;;;;;;5093844;28;20023;-39
2022/05/08 00:26:46;;;;;;;11.15;8.38;;;;;;;;;;5093815;28;20036;-39
2022/05/08 00:29:12;;;;;;;13.88;9.65;;;;;;;;;;5093630;28;20085;-40
2022/05/08 00:31:38;;;;;;;14.02;9.77;;;;;;;;;;5093458;28;20024;-39
2022/05/08 00:34:03;;;;;;;18.20;9.68;;;;;;;;;;5093787;28;20142;-39
2022/05/08 00:36:28;;;;;;;13.20;8.90;;;;;;;;;;5093527;28;20478;-39
2022/05/08 00:38:55;;;;;;;15.32;9.40;;;;;;;;;;5093401;28;20016;-39
2022/05/08 00:41:20;;;;;;;16.27;9.48;;;;;;;;;;5093377;28;20020;-39
2022/05/08 00:43:45;;;;;;;13.30;10.13;;;;;;;;;;5093333;28;20098;-39
2022/05/08 00:46:12;;;;;;;13.07;9.40;;;;;;;;;;5093113;28;20020;-39
2022/05/08 00:48:37;;;;;;;16.40;9.98;;;;;;;;;;5093382;28;20023;-39
2022/05/08 00:51:07;;;;;;;15.20;10.15;;;;;;;;;;5092765;28;20012;-39
2022/05/08 00:53:40;;;;;;;12.13;8.90;;;;;;;;;;5093272;28;20455;-39
2022/05/08 00:56:06;;;;;;;12.25;8.75;;;;;;;;;;5093138;28;20093;-39
2022/05/08 00:58:33;;;;;;;14.85;9.43;;;;;;;;;;5092962;28;20095;-40
2022/05/08 01:00:58;;;;;;;30.17;14.80;;;;;;;;;;5093317;28;20016;-38
2022/05/08 01:03:24;;;;;;;30.25;16.08;;;;;;;;;;5093215;28;20362;-38
2022/05/08 01:05:50;;;;;;;28.15;14.43;;;;;;;;;;5093206;28;20448;-39
2022/05/08 01:08:15;;;;;;;28.42;15.10;;;;;;;;;;5093075;28;20012;-39
2022/05/08 01:10:41;;;;;;;27.30;14.98;;;;;;;;;;5093132;28;20362;-39
2022/05/08 01:13:06;;;;;;;27.17;15.90;;;;;;;;;;5092966;28;20051;-39
2022/05/08 01:15:40;;;;;;;25.73;13.95;;;;;;;;;;5092922;28;20008;-39
2022/05/08 01:18:06;;;;;;;23.05;14.13;;;;;;;;;;5092949;28;20462;-39
2022/05/08 01:20:31;;;;;;;31.92;15.20;;;;;;;;;;5093150;28;20016;-39
2022/05/08 01:22:57;;;;;;;24.27;13.52;;;;;;;;;;5093400;28;20023;-39
2022/05/08 01:25:22;;;;;;;25.50;14.00;;;;;;;;;;5092852;28;20098;-39
2022/05/08 01:27:47;;;;;;;24.77;14.20;;;;;;;;;;5092751;28;20028;-39
2022/05/08 01:30:13;;;;;;;22.83;14.05;;;;;;;;;;5092805;28;20020;-39
2022/05/08 01:32:38;;;;;;;23.50;14.68;;;;;;;;;;5092799;28;20062;-39
2022/05/08 01:35:03;;;;;;;21.75;13.13;;;;;;;;;;5092835;28;20095;-39
2022/05/08 01:37:29;;;;;;;23.90;14.38;;;;;;;;;;5092824;28;20028;-39
2022/05/08 01:39:55;;;;;;;21.40;13.32;;;;;;;;;;5092927;28;20016;-39
2022/05/08 01:42:20;;;;;;;24.55;12.70;;;;;;;;;;5092655;28;20021;-39
2022/05/08 01:44:45;;;;;;;22.02;12.75;;;;;;;;;;5092453;28;20019;-39
2022/05/08 01:49:54;;;;;;;32.70;17.83;;;;;;;;;;5092608;28;20058;-39
2022/05/08 01:52:20;;;;;;;26.35;15.15;;;;;;;;;;5092773;28;20043;-39
2022/05/08 01:54:45;;;;;;;25.25;14.60;;;;;;;;;;5092609;28;20084;-39
2022/05/08 01:57:10;;;;;;;30.40;15.65;;;;;;;;;;5092671;28;20126;-39
2022/05/08 01:59:36;;;;;;;25.48;14.90;;;;;;;;;;5092764;28;20020;-39
2022/05/08 02:02:01;;;;;;;25.27;14.63;;;;;;;;;;5092629;28;20020;-39
2022/05/08 02:04:26;;;;;;;27.63;13.68;;;;;;;;;;5096437;28;20024;-39
2022/05/08 02:06:51;;;;;;;24.85;14.15;;;;;;;;;;5096495;28;20023;-39
2022/05/08 02:09:18;;;;;;;21.15;13.60;;;;;;;;;;5096334;28;20027;-39
2022/05/08 02:11:43;;;;;;;22.92;14.07;;;;;;;;;;5096039;28;20027;-39
2022/05/08 02:14:08;;;;;;;28.17;14.02;;;;;;;;;;5096247;28;20016;-39
2022/05/08 02:16:34;;;;;;;26.67;14.48;;;;;;;;;;5094988;28;20124;-39
2022/05/08 02:18:59;;;;;;;23.15;14.45;;;;;;;;;;5096394;28;20336;-39
2022/05/08 02:21:25;;;;;;;22.55;13.15;;;;;;;;;;5095854;28;20047;-39
2022/05/08 02:23:50;;;;;;;20.98;13.10;;;;;;;;;;5096230;28;20012;-39
2022/05/08 02:26:15;;;;;;;17.95;12.57;;;;;;;;;;5095863;28;20016;-38
2022/05/08 02:28:41;;;;;;;23.95;11.77;;;;;;;;;;5095813;28;20073;-38
2022/05/08 02:31:06;;;;;;;18.63;11.77;;;;;;;;;;5095710;28;20016;-39
2022/05/08 02:33:33;;;;;;;17.60;11.57;;;;;;;;;;5095774;28;20008;-39
2022/05/08 02:35:58;;;;;;;20.77;12.63;;;;;;;;;;5095648;28;20026;-39
2022/05/08 02:38:24;;;;;;;19.50;11.88;;;;;;;;;;5095753;28;20425;-39
2022/05/08 02:40:50;;;;;;;20.70;12.77;;;;;;;;;;5095494;28;20012;-40
2022/05/08 02:43:17;;;;;;;22.23;13.80;;;;;;;;;;5095209;28;20083;-39
2022/05/08 02:45:43;;;;;;;18.50;12.77;;;;;;;;;;5095718;28;20016;-39
2022/05/08 02:48:08;;;;;;;23.10;12.77;;;;;;;;;;5095492;28;20012;-38
2022/05/08 02:50:33;;;;;;;20.95;13.45;;;;;;;;;;5095381;28;20043;-39
2022/05/08 02:52:59;;;;;;;17.52;12.52;;;;;;;;;;5095472;28;20016;-39
2022/05/08 03:00:52;;;;;;;18.67;12.60;;;;;;;;;;5095404;28;20054;-39
2022/05/08 03:03:17;;;;;;;19.83;12.40;;;;;;;;;;5095254;28;20443;-39
2022/05/08 03:05:44;;;;;;;19.25;12.88;;;;;;;;;;5093901;28;20020;-39
2022/05/08 03:08:09;;;;;;;19.00;12.90;;;;;;;;;;5095054;28;20108;-39
2022/05/08 03:13:18;;;;;;;17.00;11.48;;;;;;;;;;5095186;28;20073;-39
2022/05/08 03:15:44;;;;;;;19.63;12.63;;;;;;;;;;5094509;28;20013;-39
2022/05/08 03:18:09;;;;;;;17.15;11.70;;;;;;;;;;5094837;28;20072;-39
2022/05/08 03:20:34;;;;;;;19.42;12.30;;;;;;;;;;5094784;28;20124;-39
2022/05/08 03:23:00;;;;;;;18.25;11.32;;;;;;;;;;5094702;28;20439;-39
2022/05/08 03:25:25;;;;;;;14.60;10.68;;;;;;;;;;5094618;28;20016;-39
2022/05/08 03:27:51;;;;;;;14.55;10.20;;;;;;;;;;5093401;28;20463;-38
2022/05/08 03:30:16;;;;;;;15.30;10.75;;;;;;;;;;5094684;28;20016;-39
2022/05/08 03:32:41;;;;;;;17.45;10.90;;;;;;;;;;5094648;28;20099;-38
2022/05/08 03:35:07;;;;;;;15.70;11.52;;;;;;;;;;5094677;28;20054;-38
2022/05/08 03:37:33;;;;;;;17.98;11.98;;;;;;;;;;5094235;28;20459;-38
2022/05/08 03:39:59;;;;;;;17.67;11.43;;;;;;;;;;5093640;28;20393;-38
2022/05/08 03:42:24;;;;;;;15.75;11.60;;;;;;;;;;5094589;28;20027;-39
2022/05/08 03:44:53;;;;;;;15.52;10.95;;;;;;;;;;5094344;28;20371;-39
2022/05/08 03:47:18;;;;;;;17.88;11.45;;;;;;;;;;5094347;28;20023;-39
2022/05/08 03:49:43;;;;;;;14.82;10.77;;;;;;;;;;5094253;28;20066;-39
2022/05/08 03:52:09;;;;;;;18.40;10.77;;;;;;;;;;5094422;28;20099;-39
2022/05/08 03:54:34;;;;;;;14.07;10.75;;;;;;;;;;5094240;28;20439;-39
2022/05/08 03:57:00;;;;;;;17.85;11.70;;;;;;;;;;5094171;28;20127;-39
2022/05/08 03:59:25;;;;;;;17.42;11.43;;;;;;;;;;5094162;28;20505;-39
2022/05/08 04:01:54;;;;;;;16.02;11.93;;;;;;;;;;5094132;28;20015;-39
2022/05/08 04:04:19;;;;;;;19.05;11.32;;;;;;;;;;5094130;28;20028;-39
2022/05/08 04:06:45;;;;;;;18.67;12.65;;;;;;;;;;5093842;28;20053;-39
2022/05/08 04:09:10;;;;;;;15.40;11.25;;;;;;;;;;5093839;28;20016;-39
2022/05/08 04:11:35;;;;;;;14.63;11.20;;;;;;;;;;5094074;28;20443;-39
2022/05/08 04:14:00;;;;;;;14.77;10.73;;;;;;;;;;5093903;28;20039;-39
2022/05/08 04:16:26;;;;;;;19.50;11.48;;;;;;;;;;5093721;28;20115;-40
2022/05/08 04:18:51;;;;;;;15.77;11.48;;;;;;;;;;5093814;28;20095;-39
2022/05/08 04:21:17;;;;;;;19.17;12.43;;;;;;;;;;5093663;28;20359;-40
2022/05/08 04:26:26;;;;;;;19.52;10.60;;;;;;;;;;5092742;28;20031;-39
2022/05/08 04:28:51;;;;;;;16.00;10.57;;;;;;;;;;5093651;28;20443;-39
2022/05/08 04:31:16;;;;;;;15.65;10.52;;;;;;;;;;5093616;28;20012;-39
2022/05/08 04:33:42;;;;;;;14.88;10.07;;;;;;;;;;5093561;28;20020;-39
2022/05/08 04:36:07;;;;;;;13.40;10.32;;;;;;;;;;5093623;28;20488;-39
2022/05/08 04:38:32;;;;;;;14.57;10.95;;;;;;;;;;5093461;28;20114;-39
2022/05/08 04:40:57;;;;;;;13.27;10.13;;;;;;;;;;5093654;28;20024;-39
2022/05/08 04:43:23;;;;;;;14.45;9.85;;;;;;;;;;5093369;28;20012;-39
2022/05/08 04:45:48;;;;;;;13.05;9.68;;;;;;;;;;5093370;28;20374;-39
2022/05/08 04:48:13;;;;;;;16.00;9.45;;;;;;;;;;5093247;28;20020;-39
2022/05/08 04:50:40;;;;;;;14.13;9.80;;;;;;;;;;5092948;28;20015;-39
2022/05/08 04:53:05;;;;;;;15.02;9.93;;;;;;;;;;5093305;28;20015;-38
2022/05/08 04:55:31;;;;;;;12.35;9.18;;;;;;;;;;5093421;28;20012;-38
2022/05/08 04:57:56;;;;;;;12.93;9.25;;;;;;;;;;5092771;28;20040;-38
2022/05/08 05:00:21;;;;;;;9.90;8.55;;;;;;;;;;5093205;28;20023;-38
2022/05/08 05:02:47;;;;;;;11.32;8.70;;;;;;;;;;5093099;28;20031;-38
2022/05/08 05:05:12;;;;;;;9.57;7.85;;;;;;;;;;5092973;28;20019;-39
2022/05/08 05:07:39;;;;;;;11.52;8.95;;;;;;;;;;5092979;28;20027;-38
2022/05/08 05:10:05;;;;;;;13.32;8.57;;;;;;;;;;5093134;28;20447;-39
2022/05/08 05:12:30;;;;;;;10.55;8.07;;;;;;;;;;5093095;28;20015;-39
2022/05/08 05:14:55;;;;;;;11.80;9.23;;;;;;;;;;5093104;28;20020;-39
2022/05/08 05:17:21;;;;;;;9.82;8.25;;;;;;;;;;5092795;28;20268;-39
2022/05/08 05:19:46;;;;;;;11.50;8.10;;;;;;;;;;5093713;28;20420;-41
2022/05/08 05:22:11;;;;;;;14.63;8.95;;;;;;;;;;5092819;28;20012;-39
2022/05/08 05:24:36;;;;;;;13.02;8.10;;;;;;;;;;5093079;28;20022;-38
2022/05/08 05:27:02;;;;;;;10.85;8.10;;;;;;;;;;5092860;28;20023;-39
2022/05/08 05:29:27;;;;;;;9.77;8.02;;;;;;;;;;5092928;28;20371;-38
2022/05/08 05:31:52;;;;;;;10.63;7.97;;;;;;;;;;5092830;28;20056;-38
2022/05/08 05:34:18;;;;;;;11.10;8.50;;;;;;;;;;5093098;28;20233;-39
2022/05/08 05:36:43;;;;;;;9.32;7.68;;;;;;;;;;5092578;28;20027;-39
2022/05/08 05:39:08;;;;;;;10.13;7.88;;;;;;;;;;5096160;28;20336;-39
2022/05/08 05:41:33;;;;;;;9.13;7.70;;;;;;;;;;5096800;28;20016;-39
2022/05/08 05:43:59;;;;;;;16.23;8.65;;;;;;;;;;5096685;28;20232;-39
2022/05/08 05:49:08;;;;;;;10.18;6.53;;;;;;;;;;5096716;28;20286;-40
2022/05/08 05:51:33;;;;;;;10.18;7.47;;;;;;;;;;5096278;28;20012;-39
2022/05/08 05:53:58;;;;;;;8.88;7.55;;;;;;;;;;5096711;28;20035;-39
2022/05/08 05:56:24;;;;;;;8.80;7.27;;;;;;;;;;5096422;28;20544;-39
2022/05/08 05:58:49;;;;;;;8.27;6.50;;;;;;;;;;5096274;28;20236;-39
2022/05/08 06:01:14;;;;;;;8.45;6.80;;;;;;;;;;5096707;28;20015;-39
2022/05/08 06:03:39;;;;;;;9.53;6.40;;;;;;;;;;5096331;28;20045;-41
2022/05/08 06:06:05;;;;;;;8.77;6.60;;;;;;;;;;5096498;28;20315;-39
2022/05/08 06:08:30;;;;;;;11.07;7.45;;;;;;;;;;5096426;28;20248;-39
2022/05/08 06:10:56;;;;;;;10.20;7.35;;;;;;;;;;5096536;28;20455;-39
2022/05/08 06:13:21;;;;;;;13.50;6.72;;;;;;;;;;5096182;28;20043;-39
2022/05/08 06:15:47;;;;;;;7.53;6.47;;;;;;;;;;5096143;28;20016;-39
2022/05/08 06:18:12;;;;;;;6.95;5.65;;;;;;;;;;5095926;28;20470;-39
2022/05/08 06:20:38;;;;;;;8.20;6.33;;;;;;;;;;5096150;28;20012;-39
2022/05/08 06:23:03;;;;;;;9.38;6.18;;;;;;;;;;5096153;28;20271;-39
2022/05/08 06:25:29;;;;;;;15.05;6.65;;;;;;;;;;5096272;28;20031;-39
2022/05/08 06:27:54;;;;;;;8.32;5.75;;;;;;;;;;5096067;28;20016;-39
2022/05/08 06:30:19;;;;;;;8.48;6.68;;;;;;;;;;5096031;28;20012;-39
2022/05/08 06:32:45;;;;;;;6.95;6.05;;;;;;;;;;5095834;28;20436;-40
2022/05/08 06:35:10;;;;;;;7.90;5.93;;;;;;;;;;5095687;28;20016;-40
2022/05/08 06:37:35;;;;;;;7.00;5.93;;;;;;;;;;5095961;28;20445;-39
2022/05/08 06:40:00;;;;;;;8.93;5.78;;;;;;;;;;5095863;28;20251;-39
2022/05/08 06:42:26;;;;;;;8.30;6.20;;;;;;;;;;5095494;28;20028;-39
2022/05/08 06:44:51;;;;;;;7.80;6.70;;;;;;;;;;5095843;28;20233;-39
2022/05/08 06:47:16;;;;;;;7.40;5.30;;;;;;;;;;5095526;28;20089;-39
2022/05/08 06:49:41;;;;;;;7.47;6.07;;;;;;;;;;5094365;28;20443;-40
2022/05/08 06:52:07;;;;;;;8.67;5.60;;;;;;;;;;5095173;28;20236;-39
2022/05/08 06:54:32;;;;;;;8.07;5.97;;;;;;;;;;5095561;28;20271;-39
2022/05/08 06:56:59;;;;;;;7.28;4.88;;;;;;;;;;5095322;28;20751;-39
2022/05/08 07:02:11;;;;;;;9.60;5.93;;;;;;;;;;5095567;28;20412;-40
2022/05/08 07:04:37;;;;;;;8.00;5.93;;;;;;;;;;5094959;28;20019;-39
2022/05/08 07:07:02;;;;;;;13.68;5.47;;;;;;;;;;5095335;28;20050;-39
2022/05/08 07:09:28;;;;;;;9.98;5.35;;;;;;;;;;5095260;28;20440;-39
2022/05/08 07:11:53;;;;;;;8.93;5.07;;;;;;;;;;5095398;28;20050;-39
2022/05/08 07:14:18;;;;;;;7.63;5.63;;;;;;;;;;5094891;28;20056;-39
2022/05/08 07:16:44;;;;;;;8.07;6.00;;;;;;;;;;5094988;28;20043;-39
2022/05/08 07:19:10;;;;;;;8.15;5.40;;;;;;;;;;5094718;28;20081;-39
2022/05/08 07:21:35;;;;;;;6.00;5.40;;;;;;;;;;5095042;28;20016;-39
2022/05/08 07:24:00;;;;;;;7.75;6.03;;;;;;;;;;5095064;28;20024;-39
2022/05/08 07:26:26;;;;;;;7.22;6.22;;;;;;;;;;5094802;28;20024;-39
2022/05/08 07:28:51;;;;;;;6.25;5.32;;;;;;;;;;5094796;28;20149;-39
2022/05/08 07:31:16;;;;;;;10.02;5.55;;;;;;;;;;5094662;28;20027;-39
2022/05/08 07:33:42;;;;;;;8.57;6.63;;;;;;;;;;5094363;28;20447;-39
2022/05/08 07:36:13;;;;;;;8.43;5.97;;;;;;;;;;5094758;28;20016;-39
2022/05/08 07:38:47;;;;;;;9.55;6.18;;;;;;;;;;5094619;28;20586;-40
2022/05/08 07:41:17;;;;;;;6.55;5.57;;;;;;;;;;5094712;28;20020;-39
2022/05/08 07:43:44;;;;;;;12.25;6.40;;;;;;;;;;5094372;28;20012;-39
2022/05/08 07:46:10;;;;;;;10.25;6.00;;;;;;;;;;5094242;28;20024;-41
2022/05/08 07:48:35;;;;;;;10.30;6.60;;;;;;;;;;5094175;28;20016;-40
2022/05/08 07:51:02;;;;;;;8.60;6.07;;;;;;;;;;5094407;28;20044;-39
2022/05/08 07:53:27;;;;;;;7.57;6.00;;;;;;;;;;5094428;28;20039;-39
2022/05/08 07:55:53;;;;;;;8.38;5.68;;;;;;;;;;5094028;28;20054;-39
2022/05/08 07:58:19;;;;;;;8.07;5.97;;;;;;;;;;5094067;28;20043;-39
2022/05/08 08:00:44;;;;;;;7.65;5.75;;;;;;;;;;5093773;28;20020;-40
2022/05/08 08:03:10;;;;;;;8.50;5.97;;;;;;;;;;5093862;28;20019;-39
2022/05/08 08:05:35;;;;;;;8.75;5.80;;;;;;;;;;5094493;28;20059;-39
2022/05/08 08:08:00;;;;;;;10.13;5.82;;;;;;;;;;5094102;28;20004;-39
2022/05/08 08:10:25;;;;;;;9.52;7.20;;;;;;;;;;5094036;28;20020;-39
2022/05/08 08:12:51;;;;;;;6.70;5.53;;;;;;;;;;5094000;28;20023;-40
2022/05/08 08:15:16;;;;;;;9.63;6.28;;;;;;;;;;5093797;28;20735;-39
2022/05/08 08:17:41;;;;;;;10.70;5.13;;;;;;;;;;5093533;28;20523;-39
2022/05/08 08:20:07;;;;;;;8.82;5.55;;;;;;;;;;5093874;28;20247;-39
2022/05/08 08:22:32;;;;;;;7.72;5.20;;;;;;;;;;5093733;28;20020;-40
2022/05/08 08:24:59;;;;;;;7.15;5.32;;;;;;;;;;5092534;28;20355;-39
2022/05/08 08:27:25;;;;;;;8.05;5.68;;;;;;;;;;5093546;28;20066;-39
2022/05/08 08:29:50;;;;;;;7.75;5.65;;;;;;;;;;5093589;28;20443;-39
2022/05/08 08:32:15;;;;;;;5.70;4.93;;;;;;;;;;5093404;28;20440;-39
2022/05/08 08:34:40;;;;;;;7.03;4.63;;;;;;;;;;5093556;28;20241;-39
2022/05/08 08:37:06;;;;;;;6.68;5.03;;;;;;;;;;5093572;28;20042;-39
2022/05/08 08:39:31;;;;;;;6.10;5.43;;;;;;;;;;5093458;28;20023;-39
2022/05/08 08:42:00;;;;;;;8.77;4.67;;;;;;;;;;5093501;28;20019;-39
2022/05/08 08:49:58;;;;;;;8.38;4.90;;;;;;;;;;5093451;28;20065;-39
2022/05/08 08:52:25;;;;;;;6.28;4.78;;;;;;;;;;5093283;28;20102;-39
2022/05/08 08:54:51;;;;;;;7.40;4.95;;;;;;;;;;5093510;28;20091;-39
2022/05/08 08:57:16;;;;;;;6.30;4.47;;;;;;;;;;5092776;28;20178;-39
2022/05/08 08:59:41;;;;;;;6.37;4.57;;;;;;;;;;5093077;28;20690;-39
2022/05/08 09:02:16;;;;;;;5.82;4.60;;;;;;;;;;5093262;28;20004;-39
2022/05/08 09:04:41;;;;;;;5.75;4.38;;;;;;;;;;5091873;28;20024;-39
2022/05/08 09:07:26;;;;;;;8.43;4.75;;;;;;;;;;5093150;28;20016;-39
2022/05/08 09:10:04;;;;;;;6.72;4.25;;;;;;;;;;5092808;28;20020;-39
2022/05/08 09:12:30;;;;;;;6.07;4.38;;;;;;;;;;5092569;28;20021;-39
2022/05/08 09:14:55;;;;;;;6.07;3.67;;;;;;;;;;5093037;28;20012;-39
2022/05/08 09:17:20;;;;;;;6.97;4.53;;;;;;;;;;5093170;28;20699;-39
2022/05/08 09:19:47;;;;;;;7.33;4.47;;;;;;;;;;5093118;28;20004;-39
2022/05/08 09:22:15;;;;;;;9.93;5.07;;;;;;;;;;5092926;28;20283;-39
2022/05/08 09:24:53;;;;;;;8.25;4.75;;;;;;;;;;5092735;28;20094;-39
2022/05/08 09:27:19;;;;;;;7.28;4.38;;;;;;;;;;5092964;28;20089;-39
2022/05/08 09:29:44;;;;;;;4.97;4.20;;;;;;;;;;5092779;28;20020;-39
2022/05/08 09:32:30;;;;;;;6.60;4.57;;;;;;;;;;5093084;28;20016;-39
2022/05/08 09:34:58;;;;;;;5.28;4.20;;;;;;;;;;5092643;28;20120;-39
2022/05/08 09:37:24;;;;;;;;;;;;;;;;;;5093095;28;20416;-40
2022/05/08 09:39:50;;;;;;;4.55;3.88;;;;;;;;;;5092886;28;19904;-39
2022/05/08 09:42:34;;;;;;;6.03;3.90;;;;;;;;;;5092777;28;20016;-39
2022/05/08 09:45:08;;;;;;;6.20;4.65;;;;;;;;;;5092696;28;20107;-39
2022/05/08 09:47:41;;;;;;;8.90;4.40;;;;;;;;;;5092331;28;20023;-39
2022/05/08 09:50:07;;;;;;;5.75;3.83;;;;;;;;;;5092884;28;20024;-39
2022/05/08 09:52:33;;;;;;;5.47;3.60;;;;;;;;;;5092763;28;20023;-39
2022/05/08 09:55:01;;;;;;;8.18;4.43;;;;;;;;;;5092860;28;20072;-39
2022/05/08 09:57:26;;;;;;;7.70;3.95;;;;;;;;;;5092660;28;20060;-39
2022/05/08 09:59:52;;;;;;;4.38;3.65;;;;;;;;;;5092487;28;20027;-39
2022/05/08 10:02:17;;;;;;;8.10;4.00;;;;;;;;;;5092297;28;20012;-39
2022/05/08 10:04:43;;;;;;;4.20;3.63;;;;;;;;;;5092786;28;20015;-39
2022/05/08 10:07:11;;;;;;;5.18;4.00;;;;;;;;;;5092859;28;20698;-39
2022/05/08 10:15:18;;;;;;;6.75;3.88;;;;;;;;;;5092718;28;21061;-39
2022/05/08 10:17:44;;;;;;;7.90;3.92;;;;;;;;;;5092335;28;20028;-39
2022/05/08 10:20:09;;;;;;;5.35;3.70;;;;;;;;;;5092715;28;20102;-39
2022/05/08 10:22:48;;;;;;;5.25;4.00;;;;;;;;;;5092338;28;20016;-39
2022/05/08 10:25:15;;;;;;;4.57;4.10;;;;;;;;;;5094107;28;20024;-39
2022/05/08 10:27:40;;;;;;;7.78;4.30;;;;;;;;;;5096325;28;20400;-40
2022/05/08 10:30:06;;;;;;;4.68;3.90;;;;;;;;;;5095792;28;20016;-39
2022/05/08 10:32:31;;;;;;;5.03;4.00;;;;;;;;;;5096061;28;20015;-39
2022/05/08 10:35:15;;;;;;;4.83;3.93;;;;;;;;;;5095809;28;20117;-39
2022/05/08 10:37:40;;;;;;;6.97;3.95;;;;;;;;;;5095493;28;20152;-39
2022/05/08 10:40:24;;;;;;;5.70;4.17;;;;;;;;;;5095990;28;20505;-39
2022/05/08 10:42:49;;;;;;;5.65;3.65;;;;;;;;;;5095626;28;20016;-40
2022/05/08 10:45:30;;;;;;;4.60;4.10;;;;;;;;;;5095550;28;20016;-39
2022/05/08 10:47:56;;;;;;;7.82;3.92;;;;;;;;;;5095593;28;20031;-39
2022/05/08 10:50:21;;;;;;;4.00;3.63;;;;;;;;;;5093984;28;20020;-40
2022/05/08 10:52:47;;;;;;;5.30;3.70;;;;;;;;;;5095405;28;20020;-40
2022/05/08 10:55:15;;;;;;;5.07;3.90;;;;;;;;;;5095496;28;20240;-39
2022/05/08 10:57:41;;;;;;;4.72;3.90;;;;;;;;;;5095184;28;20548;-39
2022/05/08 11:00:07;;;;;;;4.78;4.35;;;;;;;;;;5095297;28;20016;-39
2022/05/08 11:02:39;;;;;;;4.85;3.60;;;;;;;;;;5095163;28;20366;-39
2022/05/08 11:05:05;;;;;;;5.85;4.30;;;;;;;;;;5095050;28;20020;-39
2022/05/08 11:07:30;;;;;;;6.75;4.35;;;;;;;;;;5095177;28;20047;-39
2022/05/08 11:09:55;;;;;;;5.30;3.80;;;;;;;;;;5095457;28;20066;-39
2022/05/08 11:12:21;;;;;;;5.63;3.60;;;;;;;;;;5095096;28;20312;-39
2022/05/08 11:14:46;;;;;;;8.25;4.20;;;;;;;;;;5095042;28;20229;-39
2022/05/08 11:17:18;;;;;;;5.57;4.00;;;;;;;;;;5094813;28;20027;-39
2022/05/08 11:19:53;;;;;;;7.43;4.20;;;;;;;;;;5094761;28;20290;-39
2022/05/08 11:22:18;;;;;;;6.50;3.70;;;;;;;;;;5095067;28;20008;-39
2022/05/08 11:24:47;;;;;;;4.53;3.50;;;;;;;;;;5093616;28;20026;-39
2022/05/08 11:27:13;;;;;;;4.80;3.67;;;;;;;;;;5094792;28;20347;-39
2022/05/08 11:29:38;;;;;;;5.78;4.32;;;;;;;;;;5094663;28;20016;-39
2022/05/08 11:38:03;;;;;;;4.38;3.97;;;;;;;;;;5094446;28;20482;-39
2022/05/08 11:40:29;;;;;;;6.90;4.05;;;;;;;;;;5094199;28;20016;-39
2022/05/08 11:42:55;;;;;;;4.07;3.67;;;;;;;;;;5094472;28;20008;-39
2022/05/08 11:45:20;;;;;;;4.63;3.20;;;;;;;;;;5094584;28;20099;-38
2022/05/08 11:47:49;;;;;;;4.22;3.80;;;;;;;;;;5094428;28;20063;-39
2022/05/08 11:50:15;;;;;;;7.25;3.97;;;;;;;;;;5094337;28;20363;-39
2022/05/08 11:52:40;;;;;;;6.85;4.32;;;;;;;;;;5092978;28;20030;-39
2022/05/08 11:55:06;;;;;;;5.40;3.72;;;;;;;;;;5094169;28;20015;-39
2022/05/08 11:57:40;;;;;;;6.50;4.75;;;;;;;;;;5094370;28;20491;-39
2022/05/08 12:00:11;;;;;;;6.22;3.90;;;;;;;;;;5093162;28;20008;-39
2022/05/08 12:02:37;;;;;;;4.00;3.63;;;;;;;;;;5094035;28;20035;-39
2022/05/08 12:05:03;;;;;;;5.53;3.83;;;;;;;;;;5094075;28;20020;-39
2022/05/08 12:07:36;;;;;;;5.72;3.90;;;;;;;;;;5093979;28;20011;-39
2022/05/08 12:10:02;;;;;;;5.13;3.65;;;;;;;;;;5092901;28;20084;-38
2022/05/08 12:12:27;;;;;;;5.18;3.80;;;;;;;;;;5093801;28;20439;-39
2022/05/08 12:14:54;;;;;;;6.15;3.78;;;;;;;;;;5093948;28;20099;-38
2022/05/08 12:17:19;;;;;;;4.38;3.70;;;;;;;;;;5092539;28;20039;-38
2022/05/08 12:19:49;;;;;;;4.80;3.80;;;;;;;;;;5093836;28;20054;-38
2022/05/08 12:22:21;;;;;;;10.38;4.40;;;;;;;;;;5093730;28;20016;-39
2022/05/08 12:24:47;;;;;;;8.93;4.35;;;;;;;;;;5093623;28;20451;-40
2022/05/08 12:27:12;;;;;;;4.38;3.80;;;;;;;;;;5093656;28;20012;-39
2022/05/08 12:29:38;;;;;;;4.63;4.03;;;;;;;;;;5093863;28;20070;-39
2022/05/08 12:32:03;;;;;;;7.18;4.40;;;;;;;;;;5093470;28;20233;-39
2022/05/08 12:34:29;;;;;;;5.50;4.30;;;;;;;;;;5093461;28;20020;-39
2022/05/08 12:36:54;;;;;;;8.05;4.05;;;;;;;;;;5093291;28;20024;-39
2022/05/08 12:39:19;;;;;;;9.13;4.20;;;;;;;;;;5093618;28;20031;-39
2022/05/08 12:41:45;;;;;;;4.18;3.58;;;;;;;;;;5093502;28;20012;-39
2022/05/08 12:44:11;;;;;;;4.30;3.80;;;;;;;;;;5093379;28;20019;-39
2022/05/08 12:46:36;;;;;;;6.07;3.72;;;;;;;;;;5093042;28;20097;-39
2022/05/08 12:49:02;;;;;;;5.97;4.00;;;;;;;;;;5093049;28;20098;-39
2022/05/08 12:51:38;;;;;;;4.10;3.70;;;;;;;;;;5093119;28;20019;-39
2022/05/08 12:54:04;;;;;;;5.15;4.05;;;;;;;;;;5092063;28;20111;-39
2022/05/08 12:56:30;;;;;;;4.93;3.80;;;;;;;;;;5093142;28;20165;-39
2022/05/08 13:01:39;;;;;;;6.65;4.20;;;;;;;;;;5093374;28;20035;-40
2022/05/08 13:04:06;;;;;;;6.00;3.87;;;;;;;;;;5092890;28;20016;-40
2022/05/08 13:06:31;;;;;;;8.20;3.90;;;;;;;;;;5093335;28;20012;-39
2022/05/08 13:08:56;;;;;;;4.95;4.13;;;;;;;;;;5093564;28;20365;-40
2022/05/08 13:11:22;;;;;;;9.73;4.15;;;;;;;;;;5093004;28;20070;-40
2022/05/08 13:13:47;;;;;;;8.27;4.10;;;;;;;;;;5092998;28;20016;-39
2022/05/08 13:16:14;;;;;;;7.00;4.17;;;;;;;;;;5093186;28;20319;-40
2022/05/08 13:18:40;;;;;;;4.55;3.45;;;;;;;;;;5092861;28;20603;-40
2022/05/08 13:21:06;;;;;;;4.70;3.90;;;;;;;;;;5092929;28;20016;-39
2022/05/08 13:23:31;;;;;;;4.68;4.18;;;;;;;;;;5093062;28;20016;-39
2022/05/08 13:25:56;;;;;;;6.27;3.93;;;;;;;;;;5092755;28;20432;-40
2022/05/08 13:28:21;;;;;;;6.07;4.37;;;;;;;;;;5092837;28;20012;-39
2022/05/08 13:30:47;;;;;;;8.45;4.10;;;;;;;;;;5092896;28;20225;-39
2022/05/08 13:33:12;;;;;;;6.68;3.63;;;;;;;;;;5092785;28;20019;-39
2022/05/08 13:35:37;;;;;;;5.07;4.33;;;;;;;;;;5092715;28;20016;-39
2022/05/08 13:38:02;;;;;;;6.78;4.25;;;;;;;;;;5092883;28;20128;-39
2022/05/08 13:40:28;;;;;;;6.07;4.63;;;;;;;;;;5092804;28;20027;-40
2022/05/08 13:42:55;;;;;;;4.53;3.97;;;;;;;;;;5092706;28;20038;-40
2022/05/08 13:45:21;;;;;;;7.65;4.18;;;;;;;;;;5092828;28;20095;-39
2022/05/08 13:47:46;;;;;;;6.78;4.30;;;;;;;;;;5092979;28;20107;-39
2022/05/08 13:50:12;;;;;;;9.03;3.70;;;;;;;;;;5092448;28;20061;-39
2022/05/08 13:52:37;;;;;;;6.72;3.58;;;;;;;;;;5092788;28;20283;-40
2022/05/08 13:55:03;;;;;;;7.47;4.22;;;;;;;;;;5092786;28;20048;-39
2022/05/08 13:57:31;;;;;;;6.13;4.28;;;;;;;;;;5092417;28;20123;-40
2022/05/08 13:59:56;;;;;;;5.13;4.60;;;;;;;;;;5095774;28;20440;-39
2022/05/08 14:02:23;;;;;;;11.55;4.57;;;;;;;;;;5096342;28;20051;-39
2022/05/08 14:04:48;;;;;;;5.07;4.15;;;;;;;;;;5096393;28;20016;-39
2022/05/08 14:07:14;;;;;;;7.25;4.63;;;;;;;;;;5096990;28;20050;-39
2022/05/08 14:09:39;;;;;;;4.77;4.00;;;;;;;;;;5096107;28;20028;-39
2022/05/08 14:12:05;;;;;;;6.95;4.13;;;;;;;;;;5096330;28;20321;-39
2022/05/08 14:14:30;;;;;;;8.15;4.30;;;;;;;;;;5096146;28;20020;-39
2022/05/08 14:16:56;;;;;;;7.60;4.53;;;;;;;;;;5096242;28;20115;-38
2022/05/08 14:19:21;;;;;;;6.63;3.92;;;;;;;;;;5095955;28;20404;-40
2022/05/08 14:21:47;;;;;;;8.95;4.72;;;;;;;;;;5096310;28;20020;-39
2022/05/08 14:24:12;;;;;;;6.23;4.40;;;;;;;;;;5096107;28;20012;-39
2022/05/08 14:26:38;;;;;;;6.85;4.85;;;;;;;;;;5096135;28;20595;-39
2022/05/08 14:29:03;;;;;;;8.32;3.80;;;;;;;;;;5096008;28;20065;-39
2022/05/08 14:36:56;;;;;;;5.78;4.15;;;;;;;;;;5095617;28;20098;-39
2022/05/08 14:39:21;;;;;;;6.60;4.13;;;;;;;;;;5095714;28;20023;-39
2022/05/08 14:41:47;;;;;;;5.40;3.70;;;;;;;;;;5096071;28;20233;-39
2022/05/08 14:44:12;;;;;;;4.88;3.72;;;;;;;;;;5096073;28;20256;-39
2022/05/08 14:46:37;;;;;;;6.35;4.45;;;;;;;;;;5095378;28;20028;-39
2022/05/08 14:49:03;;;;;;;6.77;3.90;;;;;;;;;;5095990;28;20019;-39
2022/05/08 14:51:29;;;;;;;6.22;3.90;;;;;;;;;;5095569;28;20477;-39
2022/05/08 14:53:54;;;;;;;6.57;4.28;;;;;;;;;;5095553;28;20016;-39
2022/05/08 14:56:19;;;;;;;5.33;4.30;;;;;;;;;;5095419;28;20344;-39
2022/05/08 14:58:45;;;;;;;9.33;4.90;;;;;;;;;;5095363;28;20244;-39
2022/05/08 15:01:12;;;;;;;7.47;4.13;;;;;;;;;;5095074;28;20424;-39
2022/05/08 15:03:37;;;;;;;5.50;4.50;;;;;;;;;;5095609;28;20070;-39
2022/05/08 15:06:02;;;;;;;5.80;3.72;;;;;;;;;;5095388;28;20020;-39
2022/05/08 15:08:28;;;;;;;7.10;4.30;;;;;;;;;;5095339;28;20109;-39
2022/05/08 15:10:53;;;;;;;8.33;4.33;;;;;;;;;;5093220;28;20245;-39
2022/05/08 15:13:19;;;;;;;6.67;4.60;;;;;;;;;;5095047;28;20031;-39